createdAt,value
2022-12-05T00:00:51.325Z,50.20
2022-12-05T00:01:51.722Z,52.00
2022-12-05T00:02:52.002Z,50.50
2022-12-05T00:03:52.419Z,55.70
2022-12-05T00:04:52.606Z,50.40
2022-12-05T00:05:52.901Z,50.20
2022-12-05T00:06:53.241Z,53.60
2022-12-05T00:07:53.578Z,55.00
2022-12-05T00:08:53.763Z,48.50
2022-12-05T00:09:54.114Z,53.70
2022-12-05T00:10:54.431Z,58.10
2022-12-05T00:11:54.770Z,55.40
2022-12-05T00:12:55.055Z,54.90
2022-12-05T00:13:55.395Z,50.70
2022-12-05T00:14:55.708Z,55.00
2022-12-05T00:15:55.975Z,54.50
2022-12-05T00:16:56.346Z,53.70
2022-12-05T00:17:56.558Z,54.40
2022-12-05T00:18:56.854Z,54.90
2022-12-05T00:19:57.215Z,50.60
2022-12-05T00:20:57.455Z,53.90
2022-12-05T00:21:57.782Z,57.10
2022-12-05T00:22:58.105Z,50.90
2022-12-05T00:23:58.502Z,54.10
2022-12-05T00:24:58.681Z,57.20
2022-12-05T00:25:59.028Z,58.90
2022-12-05T00:26:59.314Z,57.20
2022-12-05T00:27:59.635Z,50.30
2022-12-05T00:28:59.977Z,59.10
2022-12-05T00:30:00.609Z,51.70
2022-12-05T00:31:00.563Z,54.60
2022-12-05T00:32:00.903Z,56.30
2022-12-05T00:33:01.185Z,56.10
2022-12-05T00:34:01.560Z,53.20
2022-12-05T00:35:01.850Z,52.30
2022-12-05T00:36:02.198Z,50.70
2022-12-05T00:37:02.465Z,55.40
2022-12-05T00:38:02.821Z,49.70
2022-12-05T00:39:03.158Z,51.20
2022-12-05T00:40:03.460Z,53.10
2022-12-05T00:41:03.764Z,53.60
2022-12-05T00:42:04.034Z,59.30
2022-12-05T00:43:04.371Z,56.00
2022-12-05T00:44:04.710Z,53.10
2022-12-05T00:45:05.021Z,56.70
2022-12-05T00:46:05.352Z,61.30
2022-12-05T00:47:05.671Z,53.80
2022-12-05T00:48:05.954Z,57.80
2022-12-05T00:49:06.311Z,59.80
2022-12-05T00:50:06.601Z,51.70
2022-12-05T00:51:06.913Z,55.20
2022-12-05T00:52:07.250Z,57.90
2022-12-05T00:53:07.575Z,61.70
2022-12-05T00:54:07.904Z,61.60
2022-12-05T00:55:08.174Z,54.80
2022-12-05T00:56:08.521Z,53.70
2022-12-05T00:57:08.855Z,50.10
2022-12-05T00:58:09.171Z,50.90
2022-12-05T00:59:09.488Z,53.50
2022-12-05T01:00:09.776Z,54.60
2022-12-05T01:01:10.175Z,53.20
2022-12-05T01:02:10.340Z,52.00
2022-12-05T01:03:10.705Z,51.60
2022-12-05T01:04:10.885Z,54.70
2022-12-05T01:05:11.202Z,59.10
2022-12-05T01:06:11.511Z,52.00
2022-12-05T01:07:11.803Z,51.80
2022-12-05T01:08:12.195Z,52.30
2022-12-05T01:09:12.420Z,59.20
2022-12-05T01:10:12.686Z,53.60
2022-12-05T01:11:13.003Z,54.00
2022-12-05T01:12:13.316Z,64.00
2022-12-05T01:13:13.642Z,54.70
2022-12-05T01:14:13.991Z,53.50
2022-12-05T01:15:14.274Z,53.30
2022-12-05T01:16:14.647Z,55.90
2022-12-05T01:17:14.922Z,51.60
2022-12-05T01:18:15.260Z,55.40
2022-12-05T01:19:15.845Z,61.60
2022-12-05T01:20:15.837Z,53.50
2022-12-05T01:21:16.212Z,50.30
2022-12-05T01:22:16.486Z,48.20
2022-12-05T01:23:16.833Z,53.80
2022-12-05T01:24:17.160Z,52.00
2022-12-05T01:25:17.451Z,53.20
2022-12-05T01:26:17.813Z,55.30
2022-12-05T01:27:18.110Z,51.60
2022-12-05T01:28:18.376Z,52.50
2022-12-05T01:29:18.843Z,51.70
2022-12-05T01:30:19.020Z,49.00
2022-12-05T01:31:19.399Z,51.70
2022-12-05T01:32:19.643Z,51.20
2022-12-05T01:33:19.820Z,51.20
2022-12-05T01:34:20.172Z,51.30
2022-12-05T01:35:20.473Z,55.70
2022-12-05T01:36:20.734Z,51.50
2022-12-05T01:37:21.083Z,51.60
2022-12-05T01:38:21.382Z,53.30
2022-12-05T01:39:21.686Z,52.50
2022-12-05T01:40:21.973Z,49.30
2022-12-05T01:41:22.295Z,47.00
2022-12-05T01:42:26.133Z,48.90
2022-12-05T01:43:22.931Z,51.80
2022-12-05T01:44:23.235Z,49.20
2022-12-05T01:45:23.523Z,53.70
2022-12-05T01:46:23.920Z,47.70
2022-12-05T01:47:24.199Z,49.60
2022-12-05T01:48:24.496Z,52.30
2022-12-05T01:49:24.813Z,49.70
2022-12-05T01:50:25.171Z,56.10
2022-12-05T01:51:25.470Z,53.40
2022-12-05T01:52:25.771Z,52.40
2022-12-05T01:53:26.124Z,47.00
2022-12-05T01:54:26.403Z,53.10
2022-12-05T01:55:26.752Z,55.40
2022-12-05T01:56:27.050Z,54.90
2022-12-05T01:57:27.338Z,56.70
2022-12-05T01:58:27.665Z,51.00
2022-12-05T01:59:27.988Z,51.50
2022-12-05T02:00:28.320Z,53.50
2022-12-05T02:01:28.739Z,51.50
2022-12-05T02:02:28.919Z,50.40
2022-12-05T02:03:29.175Z,52.30
2022-12-05T02:04:29.525Z,54.80
2022-12-05T02:05:29.831Z,51.90
2022-12-05T02:06:30.104Z,49.40
2022-12-05T02:07:30.512Z,51.60
2022-12-05T02:08:30.702Z,55.90
2022-12-05T02:09:31.025Z,51.10
2022-12-05T02:10:31.284Z,52.60
2022-12-05T02:11:31.620Z,53.00
2022-12-05T02:12:31.943Z,52.70
2022-12-05T02:13:32.290Z,48.80
2022-12-05T02:14:32.573Z,49.50
2022-12-05T02:15:32.901Z,50.60
2022-12-05T02:16:33.303Z,50.30
2022-12-05T02:17:33.471Z,48.70
2022-12-05T02:18:33.832Z,54.30
2022-12-05T02:19:34.144Z,52.00
2022-12-05T02:20:34.430Z,51.30
2022-12-05T02:21:34.734Z,48.00
2022-12-05T02:22:35.088Z,51.50
2022-12-05T02:23:35.393Z,49.20
2022-12-05T02:24:35.704Z,49.60
2022-12-05T02:25:35.983Z,51.90
2022-12-05T02:26:36.297Z,53.00
2022-12-05T02:27:36.650Z,51.50
2022-12-05T02:28:36.934Z,50.70
2022-12-05T02:29:37.266Z,48.60
2022-12-05T02:30:37.620Z,49.30
2022-12-05T02:31:37.978Z,50.10
2022-12-05T02:32:38.115Z,50.70
2022-12-05T02:33:38.432Z,53.20
2022-12-05T02:34:38.789Z,50.80
2022-12-05T02:35:39.088Z,51.40
2022-12-05T02:36:39.420Z,51.00
2022-12-05T02:37:39.685Z,52.60
2022-12-05T02:38:40.014Z,53.20
2022-12-05T02:39:40.354Z,50.60
2022-12-05T02:40:40.623Z,49.90
2022-12-05T02:41:40.952Z,51.30
2022-12-05T02:42:41.301Z,51.70
2022-12-05T02:43:41.612Z,45.80
2022-12-05T02:44:41.933Z,44.60
2022-12-05T02:45:42.248Z,48.80
2022-12-05T02:46:42.543Z,47.60
2022-12-05T02:47:42.912Z,46.20
2022-12-05T02:48:43.175Z,46.50
2022-12-05T02:49:43.523Z,46.50
2022-12-05T02:50:43.841Z,45.80
2022-12-05T02:51:44.154Z,45.90
2022-12-05T02:52:44.519Z,48.50
2022-12-05T02:53:44.820Z,46.30
2022-12-05T02:54:45.114Z,46.30
2022-12-05T02:55:45.413Z,44.70
2022-12-05T02:56:45.795Z,44.10
2022-12-05T02:57:46.080Z,47.00
2022-12-05T02:58:46.353Z,45.10
2022-12-05T02:59:46.739Z,47.80
2022-12-05T03:00:47.011Z,44.20
2022-12-05T03:01:47.374Z,48.10
2022-12-05T03:02:47.573Z,45.90
2022-12-05T03:03:47.977Z,45.40
2022-12-05T03:04:48.155Z,44.80
2022-12-05T03:05:48.483Z,47.50
2022-12-05T03:06:48.813Z,51.00
2022-12-05T03:07:49.176Z,49.20
2022-12-05T03:08:49.474Z,51.80
2022-12-05T03:09:49.822Z,46.90
2022-12-05T03:10:50.120Z,50.00
2022-12-05T03:11:50.433Z,47.00
2022-12-05T03:12:50.786Z,49.60
2022-12-05T03:13:51.090Z,46.20
2022-12-05T03:14:51.373Z,48.90
2022-12-05T03:15:51.684Z,48.20
2022-12-05T03:16:52.071Z,52.90
2022-12-05T03:17:52.271Z,50.60
2022-12-05T03:18:52.602Z,47.80
2022-12-05T03:19:52.973Z,51.60
2022-12-05T03:20:53.261Z,49.30
2022-12-05T03:21:53.573Z,49.00
2022-12-05T03:22:53.884Z,47.50
2022-12-05T03:23:54.236Z,47.70
2022-12-05T03:24:54.549Z,49.50
2022-12-05T03:25:54.832Z,47.10
2022-12-05T03:26:55.145Z,50.60
2022-12-05T03:27:55.453Z,47.60
2022-12-05T03:28:55.800Z,47.50
2022-12-05T03:29:56.448Z,52.50
2022-12-05T03:30:56.498Z,49.60
2022-12-05T03:31:56.774Z,49.80
2022-12-05T03:32:57.089Z,48.40
2022-12-05T03:33:57.450Z,49.70
2022-12-05T03:34:57.735Z,49.20
2022-12-05T03:35:58.070Z,47.30
2022-12-05T03:36:58.410Z,52.00
2022-12-05T03:37:58.762Z,49.60
2022-12-05T03:38:59.066Z,52.50
2022-12-05T03:39:59.670Z,50.40
2022-12-05T03:40:59.600Z,53.50
2022-12-05T03:41:59.939Z,56.60
2022-12-05T03:43:00.266Z,54.00
2022-12-05T03:44:00.610Z,53.00
2022-12-05T03:45:00.972Z,52.40
2022-12-05T03:46:01.325Z,53.70
2022-12-05T03:47:01.520Z,54.90
2022-12-05T03:48:01.869Z,58.00
2022-12-05T03:49:02.161Z,54.20
2022-12-05T03:50:02.451Z,53.90
2022-12-05T03:51:02.765Z,56.50
2022-12-05T03:52:03.083Z,56.10
2022-12-05T03:53:20.444Z,57.60
2022-12-05T03:54:04.737Z,56.50
2022-12-05T03:55:03.988Z,53.70
2022-12-05T03:56:04.256Z,53.20
2022-12-05T03:57:04.574Z,57.40
2022-12-05T03:58:04.919Z,54.80
2022-12-05T03:59:05.233Z,54.90
2022-12-05T04:00:05.572Z,57.80
2022-12-05T04:01:05.930Z,58.20
2022-12-05T04:02:06.274Z,57.20
2022-12-05T04:03:06.583Z,59.80
2022-12-05T04:04:06.859Z,57.60
2022-12-05T04:05:07.183Z,59.20
2022-12-05T04:06:07.503Z,55.60
2022-12-05T04:07:07.832Z,56.90
2022-12-05T04:08:08.198Z,56.80
2022-12-05T04:09:12.461Z,57.90
2022-12-05T04:10:09.801Z,60.10
2022-12-05T04:11:09.049Z,55.90
2022-12-05T04:12:09.334Z,59.50
2022-12-05T04:13:09.669Z,59.50
2022-12-05T04:14:09.982Z,58.70
2022-12-05T04:15:10.313Z,57.40
2022-12-05T04:16:10.726Z,63.20
2022-12-05T04:17:10.969Z,57.80
2022-12-05T04:18:11.290Z,59.80
2022-12-05T04:19:11.641Z,58.70
2022-12-05T04:20:11.961Z,59.00
2022-12-05T04:21:12.231Z,60.20
2022-12-05T04:22:12.561Z,63.30
2022-12-05T04:23:12.899Z,59.10
2022-12-05T04:24:13.205Z,62.40
2022-12-05T04:25:13.541Z,61.00
2022-12-05T04:26:13.833Z,59.60
2022-12-05T04:27:14.177Z,65.00
2022-12-05T04:28:19.637Z,60.60
2022-12-05T04:29:15.800Z,62.20
2022-12-05T04:30:15.051Z,62.00
2022-12-05T04:31:15.411Z,65.00
2022-12-05T04:32:15.610Z,60.60
2022-12-05T04:33:15.891Z,63.50
2022-12-05T04:34:16.228Z,62.90
2022-12-05T04:35:16.553Z,66.10
2022-12-05T04:36:16.873Z,59.50
2022-12-05T04:37:17.191Z,61.00
2022-12-05T04:38:17.525Z,62.70
2022-12-05T04:39:18.510Z,64.70
2022-12-05T04:40:18.142Z,64.10
2022-12-05T04:41:18.480Z,61.50
2022-12-05T04:42:18.793Z,66.60
2022-12-05T04:43:19.140Z,62.30
2022-12-05T04:44:19.421Z,68.20
2022-12-05T04:45:19.783Z,66.50
2022-12-05T04:46:20.138Z,60.40
2022-12-05T04:47:20.406Z,66.00
2022-12-05T04:48:20.712Z,64.40
2022-12-05T04:49:21.042Z,63.90
2022-12-05T04:50:21.419Z,66.40
2022-12-05T04:51:21.739Z,61.60
2022-12-05T04:52:22.037Z,61.30
2022-12-05T04:53:22.338Z,64.60
2022-12-05T04:54:22.636Z,62.50
2022-12-05T04:55:22.972Z,65.40
2022-12-05T04:56:23.288Z,63.60
2022-12-05T04:57:23.572Z,60.10
2022-12-05T04:58:23.920Z,62.90
2022-12-05T04:59:24.231Z,64.70
2022-12-05T05:00:24.587Z,63.40
2022-12-05T05:01:24.926Z,63.00
2022-12-05T05:02:25.215Z,66.40
2022-12-05T05:03:25.522Z,66.40
2022-12-05T05:04:25.851Z,58.60
2022-12-05T05:05:26.191Z,64.70
2022-12-05T05:06:26.497Z,67.20
2022-12-05T05:07:26.789Z,65.90
2022-12-05T05:08:27.063Z,75.50
2022-12-05T05:09:27.398Z,64.20
2022-12-05T05:10:27.798Z,68.60
2022-12-05T05:11:27.952Z,63.00
2022-12-05T05:12:28.276Z,64.10
2022-12-05T05:13:28.599Z,68.90
2022-12-05T05:14:28.911Z,65.60
2022-12-05T05:15:29.253Z,64.50
2022-12-05T05:16:29.591Z,64.10
2022-12-05T05:17:29.860Z,61.70
2022-12-05T05:18:30.168Z,65.00
2022-12-05T05:19:30.476Z,60.20
2022-12-05T05:20:30.780Z,65.00
2022-12-05T05:21:31.079Z,64.60
2022-12-05T05:22:31.401Z,57.20
2022-12-05T05:23:31.765Z,62.90
2022-12-05T05:24:32.031Z,60.80
2022-12-05T05:25:32.401Z,59.70
2022-12-05T05:26:32.726Z,66.30
2022-12-05T05:27:33.037Z,61.20
2022-12-05T05:28:33.351Z,68.00
2022-12-05T05:29:33.667Z,68.90
2022-12-05T05:30:33.968Z,67.50
2022-12-05T05:31:34.311Z,61.20
2022-12-05T05:32:34.554Z,66.40
2022-12-05T05:33:41.914Z,65.30
2022-12-05T05:34:35.198Z,64.20
2022-12-05T05:35:37.182Z,61.60
2022-12-05T05:36:35.778Z,64.60
2022-12-05T05:37:36.116Z,59.60
2022-12-05T05:38:36.389Z,64.70
2022-12-05T05:39:36.716Z,59.90
2022-12-05T05:40:37.079Z,64.30
2022-12-05T05:41:37.428Z,62.10
2022-12-05T05:42:37.684Z,64.90
2022-12-05T05:43:38.025Z,63.70
2022-12-05T05:44:38.344Z,65.80
2022-12-05T05:45:38.629Z,67.20
2022-12-05T05:46:39.003Z,70.30
2022-12-05T05:47:39.195Z,66.10
2022-12-05T05:48:39.493Z,67.50
2022-12-05T05:49:39.843Z,64.10
2022-12-05T05:50:40.131Z,74.80
2022-12-05T05:51:40.443Z,64.80
2022-12-05T05:52:40.731Z,70.70
2022-12-05T05:53:41.067Z,69.50
2022-12-05T05:54:41.441Z,68.70
2022-12-05T05:55:41.745Z,67.10
2022-12-05T05:56:42.028Z,71.00
2022-12-05T05:57:42.370Z,64.40
2022-12-05T05:58:42.664Z,66.30
2022-12-05T05:59:42.999Z,70.80
2022-12-05T06:00:43.348Z,65.80
2022-12-05T06:01:43.655Z,64.30
2022-12-05T06:02:44.080Z,65.70
2022-12-05T06:03:44.377Z,63.50
2022-12-05T06:04:44.459Z,66.20
2022-12-05T06:05:50.081Z,62.20
2022-12-05T06:06:46.086Z,61.80
2022-12-05T06:07:45.364Z,62.80
2022-12-05T06:08:45.630Z,63.30
2022-12-05T06:09:46.016Z,64.30
2022-12-05T06:10:46.304Z,59.80
2022-12-05T06:11:46.642Z,62.60
2022-12-05T06:12:46.916Z,66.70
2022-12-05T06:13:47.265Z,60.50
2022-12-05T06:14:47.558Z,59.70
2022-12-05T06:15:47.899Z,61.40
2022-12-05T06:16:48.344Z,61.30
2022-12-05T06:17:48.535Z,66.00
2022-12-05T06:18:48.808Z,63.40
2022-12-05T06:19:49.141Z,61.50
2022-12-05T06:20:49.505Z,69.20
2022-12-05T06:21:49.789Z,65.70
2022-12-05T06:22:50.117Z,59.70
2022-12-05T06:23:50.449Z,61.10
2022-12-05T06:24:50.817Z,62.80
2022-12-05T06:25:51.117Z,61.60
2022-12-05T06:26:51.409Z,68.70
2022-12-05T06:27:51.738Z,64.20
2022-12-05T06:28:52.060Z,72.10
2022-12-05T06:29:52.416Z,69.10
2022-12-05T06:30:53.265Z,67.10
2022-12-05T06:31:53.070Z,70.30
2022-12-05T06:32:53.355Z,68.80
2022-12-05T06:33:53.656Z,67.00
2022-12-05T06:34:53.975Z,67.10
2022-12-05T06:35:54.211Z,64.40
2022-12-05T06:36:54.497Z,68.70
2022-12-05T06:37:54.849Z,60.80
2022-12-05T06:38:55.188Z,66.90
2022-12-05T06:39:55.707Z,67.10
2022-12-05T06:40:55.841Z,73.40
2022-12-05T06:41:56.155Z,67.10
2022-12-05T06:42:56.459Z,67.50
2022-12-05T06:44:01.603Z,64.00
2022-12-05T06:44:58.019Z,63.30
2022-12-05T06:45:57.460Z,75.60
2022-12-05T06:46:57.638Z,67.10
2022-12-05T06:47:57.955Z,62.50
2022-12-05T06:48:58.235Z,59.90
2022-12-05T06:49:58.748Z,58.50
2022-12-05T06:50:58.960Z,57.50
2022-12-05T06:51:59.263Z,58.10
2022-12-05T06:52:59.575Z,64.10
2022-12-05T06:54:00.723Z,61.10
2022-12-05T06:55:00.220Z,55.90
2022-12-05T06:56:00.531Z,51.20
2022-12-05T06:57:00.811Z,62.50
2022-12-05T06:58:01.122Z,58.10
2022-12-05T06:59:01.437Z,54.80
2022-12-05T07:00:01.785Z,54.10
2022-12-05T07:01:02.193Z,58.70
2022-12-05T07:02:02.438Z,61.70
2022-12-05T07:03:02.750Z,51.50
2022-12-05T07:04:03.017Z,53.30
2022-12-05T07:05:03.366Z,50.70
2022-12-05T07:06:03.607Z,54.50
2022-12-05T07:07:03.896Z,51.30
2022-12-05T07:08:04.349Z,46.90
2022-12-05T07:09:04.517Z,46.00
2022-12-05T07:10:04.797Z,48.30
2022-12-05T07:11:05.148Z,49.00
2022-12-05T07:12:05.467Z,44.30
2022-12-05T07:13:05.767Z,46.30
2022-12-05T07:14:14.687Z,44.80
2022-12-05T07:15:07.298Z,44.20
2022-12-05T07:16:06.570Z,45.10
2022-12-05T07:17:06.853Z,43.70
2022-12-05T07:18:07.188Z,43.80
2022-12-05T07:19:07.520Z,44.20
2022-12-05T07:20:07.884Z,42.50
2022-12-05T07:21:12.578Z,41.30
2022-12-05T07:22:15.361Z,38.00
2022-12-05T07:23:09.838Z,43.30
2022-12-05T07:24:09.123Z,40.70
2022-12-05T07:25:09.425Z,44.60
2022-12-05T07:26:09.719Z,46.00
2022-12-05T07:27:09.896Z,37.20
2022-12-05T07:28:10.147Z,39.90
2022-12-05T07:29:10.497Z,41.50
2022-12-05T07:30:10.728Z,39.40
2022-12-05T07:31:11.068Z,42.60
2022-12-05T07:32:11.432Z,43.90
2022-12-05T07:33:11.666Z,43.40
2022-12-05T07:34:11.907Z,42.00
2022-12-05T07:35:12.159Z,38.20
2022-12-05T07:36:12.496Z,41.60
2022-12-05T07:37:12.733Z,40.20
2022-12-05T07:38:12.972Z,39.20
2022-12-05T07:39:13.281Z,42.10
2022-12-05T07:40:13.553Z,39.70
2022-12-05T07:41:13.914Z,37.40
2022-12-05T07:42:14.103Z,38.50
2022-12-05T07:43:14.360Z,36.60
2022-12-05T07:44:14.610Z,37.70
2022-12-05T07:45:14.937Z,37.00
2022-12-05T07:46:15.323Z,32.60
2022-12-05T07:47:15.564Z,32.10
2022-12-05T07:48:18.816Z,32.60
2022-12-05T07:49:16.012Z,31.50
2022-12-05T07:50:16.306Z,29.70
2022-12-05T07:51:16.573Z,30.30
2022-12-05T07:52:16.876Z,30.10
2022-12-05T07:53:17.127Z,28.00
2022-12-05T07:54:17.509Z,26.80
2022-12-05T07:55:17.707Z,27.00
2022-12-05T07:56:17.967Z,23.80
2022-12-05T07:57:18.291Z,24.50
2022-12-05T07:58:18.506Z,24.30
2022-12-05T07:59:18.774Z,24.10
2022-12-05T08:00:19.089Z,22.30
2022-12-05T08:01:19.455Z,23.00
2022-12-05T08:02:19.688Z,22.50
2022-12-05T08:03:20.809Z,22.40
2022-12-05T08:04:20.163Z,23.40
2022-12-05T08:05:20.422Z,22.70
2022-12-05T08:06:20.824Z,25.00
2022-12-05T08:07:20.996Z,23.00
2022-12-05T08:08:21.332Z,23.20
2022-12-05T08:09:21.516Z,25.30
2022-12-05T08:10:21.759Z,24.80
2022-12-05T08:11:22.042Z,25.50
2022-12-05T08:12:22.238Z,22.90
2022-12-05T08:13:22.476Z,22.70
2022-12-05T08:14:22.773Z,22.10
2022-12-05T08:15:22.993Z,23.70
2022-12-05T08:16:23.404Z,24.70
2022-12-05T08:17:23.615Z,22.70
2022-12-05T08:18:27.394Z,25.30
2022-12-05T08:19:24.175Z,22.30
2022-12-05T08:20:24.533Z,22.70
2022-12-05T08:21:24.975Z,24.90
2022-12-05T08:22:25.219Z,24.30
2022-12-05T08:23:25.247Z,23.80
2022-12-05T08:24:25.487Z,24.70
2022-12-05T08:25:25.726Z,25.80
2022-12-05T08:26:25.986Z,28.60
2022-12-05T08:27:26.306Z,26.50
2022-12-05T08:28:26.652Z,28.40
2022-12-05T08:29:26.858Z,27.60
2022-12-05T08:30:27.202Z,26.60
2022-12-05T08:31:27.516Z,26.40
2022-12-05T08:32:27.762Z,27.80
2022-12-05T08:33:28.102Z,26.30
2022-12-05T08:34:28.295Z,26.50
2022-12-05T08:35:28.563Z,26.30
2022-12-05T08:36:28.920Z,27.60
2022-12-05T08:37:29.132Z,27.50
2022-12-05T08:38:29.452Z,26.40
2022-12-05T08:39:32.640Z,26.90
2022-12-05T08:40:30.984Z,26.40
2022-12-05T08:41:30.476Z,25.90
2022-12-05T08:42:31.623Z,28.90
2022-12-05T08:43:30.749Z,27.30
2022-12-05T08:44:31.003Z,26.90
2022-12-05T08:45:31.235Z,27.00
2022-12-05T08:46:31.585Z,26.10
2022-12-05T08:47:32.592Z,25.20
2022-12-05T08:48:32.083Z,26.00
2022-12-05T08:49:32.312Z,27.20
2022-12-05T08:50:32.536Z,26.10
2022-12-05T08:51:32.785Z,26.20
2022-12-05T08:52:33.026Z,27.10
2022-12-05T08:53:33.296Z,27.20
2022-12-05T08:54:33.522Z,30.70
2022-12-05T08:55:33.784Z,28.30
2022-12-05T08:56:34.006Z,28.50
2022-12-05T08:57:34.250Z,28.50
2022-12-05T08:58:34.483Z,26.40
2022-12-05T08:59:34.677Z,27.50
2022-12-05T09:00:34.984Z,26.60
2022-12-05T09:01:35.203Z,27.40
2022-12-05T09:02:35.525Z,33.00
2022-12-05T09:03:35.765Z,37.00
2022-12-05T09:04:36.002Z,30.60
2022-12-05T09:05:36.232Z,29.10
2022-12-05T09:06:36.455Z,30.20
2022-12-05T09:07:36.717Z,30.80
2022-12-05T09:08:36.942Z,32.80
2022-12-05T09:09:37.159Z,33.60
2022-12-05T09:10:37.433Z,31.90
2022-12-05T09:11:37.647Z,29.90
2022-12-05T09:12:37.875Z,27.10
2022-12-05T09:13:38.154Z,27.00
2022-12-05T09:14:38.466Z,25.60
2022-12-05T09:15:38.795Z,25.70
2022-12-05T09:16:39.599Z,23.50
2022-12-05T09:17:39.322Z,25.90
2022-12-05T09:18:39.547Z,24.60
2022-12-05T09:19:39.796Z,23.70
2022-12-05T09:20:40.037Z,22.20
2022-12-05T09:21:40.355Z,22.70
2022-12-05T09:22:40.545Z,23.30
2022-12-05T09:23:40.813Z,23.90
2022-12-05T09:24:41.018Z,24.70
2022-12-05T09:25:41.272Z,25.20
2022-12-05T09:26:41.583Z,24.30
2022-12-05T09:27:41.772Z,24.40
2022-12-05T09:28:42.110Z,25.70
2022-12-05T09:29:42.404Z,25.50
2022-12-05T09:30:42.825Z,26.50
2022-12-05T09:31:43.271Z,25.80
2022-12-05T09:32:43.235Z,25.10
2022-12-05T09:33:43.501Z,24.80
2022-12-05T09:34:43.794Z,25.30
2022-12-05T09:35:44.156Z,23.30
2022-12-05T09:36:44.441Z,26.40
2022-12-05T09:37:44.653Z,26.80
2022-12-05T09:38:44.955Z,23.40
2022-12-05T09:39:45.223Z,23.90
2022-12-05T09:40:45.533Z,25.50
2022-12-05T09:41:45.821Z,25.10
2022-12-05T09:42:46.005Z,25.40
2022-12-05T09:43:46.234Z,27.60
2022-12-05T09:44:46.516Z,27.00
2022-12-05T09:45:46.833Z,28.40
2022-12-05T09:46:47.187Z,28.10
2022-12-05T09:47:47.459Z,27.40
2022-12-05T09:48:47.836Z,28.10
2022-12-05T09:49:48.134Z,28.90
2022-12-05T09:50:48.403Z,26.10
2022-12-05T09:51:54.967Z,25.50
2022-12-05T09:52:50.045Z,26.20
2022-12-05T09:53:49.323Z,28.00
2022-12-05T09:54:49.664Z,27.00
2022-12-05T09:55:49.994Z,27.50
2022-12-05T09:56:50.316Z,26.90
2022-12-05T09:57:50.654Z,27.50
2022-12-05T09:58:50.946Z,28.10
2022-12-05T09:59:51.185Z,27.70
2022-12-05T10:00:51.443Z,27.70
2022-12-05T10:01:51.766Z,27.40
2022-12-05T10:02:51.922Z,28.30
2022-12-05T10:03:52.238Z,28.20
2022-12-05T10:04:58.564Z,27.10
2022-12-05T10:05:53.796Z,26.20
2022-12-05T10:06:53.075Z,27.50
2022-12-05T10:07:53.470Z,27.60
2022-12-05T10:08:53.666Z,28.00
2022-12-05T10:09:53.895Z,29.40
2022-12-05T10:10:54.146Z,27.90
2022-12-05T10:11:54.432Z,28.10
2022-12-05T10:12:54.662Z,29.70
2022-12-05T10:13:54.905Z,29.20
2022-12-05T10:14:55.184Z,28.20
2022-12-05T10:15:57.467Z,28.00
2022-12-05T10:16:55.763Z,27.90
2022-12-05T10:17:56.024Z,28.30
2022-12-05T10:18:56.283Z,28.80
2022-12-05T10:19:56.587Z,29.40
2022-12-05T10:20:56.847Z,28.50
2022-12-05T10:21:57.125Z,29.20
2022-12-05T10:22:57.343Z,27.80
2022-12-05T10:23:58.820Z,29.50
2022-12-05T10:24:58.145Z,28.40
2022-12-05T10:25:58.133Z,29.90
2022-12-05T10:26:58.376Z,27.60
2022-12-05T10:27:58.712Z,27.50
2022-12-05T10:28:58.949Z,30.20
2022-12-05T10:29:59.164Z,28.70
2022-12-05T10:30:59.557Z,30.30
2022-12-05T10:31:59.872Z,29.10
2022-12-05T10:33:01.758Z,28.60
2022-12-05T10:34:00.499Z,27.20
2022-12-05T10:35:00.822Z,28.50
2022-12-05T10:36:01.038Z,27.10
2022-12-05T10:37:01.312Z,27.20
2022-12-05T10:38:01.624Z,26.90
2022-12-05T10:39:04.696Z,27.50
2022-12-05T10:40:03.214Z,26.70
2022-12-05T10:41:02.481Z,26.60
2022-12-05T10:42:02.763Z,28.10
2022-12-05T10:43:03.006Z,28.50
2022-12-05T10:44:03.186Z,27.50
2022-12-05T10:45:03.554Z,28.10
2022-12-05T10:46:03.832Z,27.90
2022-12-05T10:47:04.134Z,28.70
2022-12-05T10:48:04.352Z,29.80
2022-12-05T10:49:04.555Z,28.60
2022-12-05T10:50:04.812Z,26.70
2022-12-05T10:51:05.142Z,28.70
2022-12-05T10:52:05.481Z,29.20
2022-12-05T10:53:05.786Z,30.40
2022-12-05T10:54:06.056Z,30.70
2022-12-05T10:55:06.257Z,31.00
2022-12-05T10:56:29.918Z,30.30
2022-12-05T10:57:07.832Z,29.40
2022-12-05T10:58:07.092Z,33.00
2022-12-05T10:59:07.361Z,29.90
2022-12-05T11:00:07.647Z,28.80
2022-12-05T11:01:07.990Z,29.50
2022-12-05T11:02:08.295Z,29.20
2022-12-05T11:03:08.455Z,28.70
2022-12-05T11:04:13.475Z,28.80
2022-12-05T11:05:10.080Z,29.50
2022-12-05T11:06:09.255Z,30.80
2022-12-05T11:07:09.541Z,30.20
2022-12-05T11:08:09.773Z,31.50
2022-12-05T11:09:10.089Z,30.10
2022-12-05T11:10:10.276Z,28.90
2022-12-05T11:11:10.522Z,29.10
2022-12-05T11:12:10.776Z,30.00
2022-12-05T11:13:10.984Z,30.00
2022-12-05T11:14:11.217Z,30.60
2022-12-05T11:15:11.517Z,28.20
2022-12-05T11:16:11.736Z,30.30
2022-12-05T11:17:11.986Z,30.60
2022-12-05T11:18:12.312Z,28.20
2022-12-05T11:19:12.661Z,29.20
2022-12-05T11:20:12.893Z,29.10
2022-12-05T11:21:20.643Z,29.40
2022-12-05T11:22:13.343Z,30.00
2022-12-05T11:23:13.667Z,27.10
2022-12-05T11:24:14.060Z,27.20
2022-12-05T11:25:14.273Z,28.60
2022-12-05T11:26:14.619Z,27.90
2022-12-05T11:27:14.971Z,25.30
2022-12-05T11:28:15.203Z,27.70
2022-12-05T11:29:15.463Z,29.20
2022-12-05T11:30:15.682Z,29.10
2022-12-05T11:31:16.051Z,28.60
2022-12-05T11:32:16.340Z,29.60
2022-12-05T11:33:16.542Z,28.20
2022-12-05T11:34:16.909Z,29.70
2022-12-05T11:35:19.365Z,29.90
2022-12-05T11:36:18.471Z,30.60
2022-12-05T11:37:18.080Z,28.80
2022-12-05T11:38:18.381Z,31.60
2022-12-05T11:39:18.825Z,28.70
2022-12-05T11:40:21.622Z,30.20
2022-12-05T11:41:20.367Z,30.30
2022-12-05T11:42:19.610Z,30.70
2022-12-05T11:43:19.796Z,29.30
2022-12-05T11:44:41.544Z,32.00
2022-12-05T11:45:21.343Z,28.50
2022-12-05T11:46:27.437Z,30.70
2022-12-05T11:48:23.492Z,29.80
2022-12-05T11:49:23.705Z,30.10
2022-12-05T11:50:25.648Z,30.60
2022-12-05T11:51:24.286Z,29.30
2022-12-05T11:52:24.593Z,30.10
2022-12-05T11:53:24.795Z,28.90
2022-12-05T11:54:48.770Z,28.80
2022-12-05T11:55:26.504Z,29.30
2022-12-05T11:56:25.625Z,28.80
2022-12-05T11:57:25.912Z,27.00
2022-12-05T11:58:26.145Z,26.20
2022-12-05T11:59:26.375Z,27.60
2022-12-05T12:00:26.713Z,27.30
2022-12-05T12:01:27.102Z,26.20
2022-12-05T12:02:27.441Z,23.80
2022-12-05T12:03:32.842Z,25.30
2022-12-05T12:04:28.964Z,24.80
2022-12-05T12:05:28.239Z,23.70
2022-12-05T12:06:28.598Z,25.00
2022-12-05T12:07:28.843Z,23.10
2022-12-05T12:08:29.045Z,24.20
2022-12-05T12:09:29.284Z,23.40
2022-12-05T12:10:29.543Z,22.90
2022-12-05T12:11:29.791Z,23.50
2022-12-05T12:12:30.118Z,23.70
2022-12-05T12:13:30.356Z,23.00
2022-12-05T12:14:30.641Z,21.30
2022-12-05T12:15:30.872Z,22.50
2022-12-05T12:16:31.127Z,22.60
2022-12-05T12:17:31.343Z,21.50
2022-12-05T12:18:31.685Z,22.50
2022-12-05T12:19:31.936Z,21.30
2022-12-05T12:20:32.263Z,21.90
2022-12-05T12:21:38.266Z,22.90
2022-12-05T12:22:33.880Z,22.60
2022-12-05T12:23:33.153Z,25.10
2022-12-05T12:24:33.492Z,26.30
2022-12-05T12:25:33.832Z,26.60
2022-12-05T12:26:34.082Z,26.60
2022-12-05T12:27:34.371Z,27.50
2022-12-05T12:28:34.590Z,27.60
2022-12-05T12:29:34.818Z,27.30
2022-12-05T12:30:35.081Z,27.00
2022-12-05T12:31:35.368Z,28.90
2022-12-05T12:32:35.602Z,30.60
2022-12-05T12:33:35.874Z,29.90
2022-12-05T12:34:36.243Z,31.00
2022-12-05T12:35:36.444Z,31.80
2022-12-05T12:36:36.675Z,30.90
2022-12-05T12:37:36.943Z,30.80
2022-12-05T12:38:37.242Z,32.30
2022-12-05T12:39:37.530Z,31.70
2022-12-05T12:40:37.776Z,33.60
2022-12-05T12:41:37.985Z,30.60
2022-12-05T12:42:38.352Z,29.30
2022-12-05T12:43:53.809Z,34.80
2022-12-05T12:44:39.855Z,32.30
2022-12-05T12:45:39.146Z,30.40
2022-12-05T12:46:39.352Z,30.70
2022-12-05T12:47:39.612Z,30.90
2022-12-05T12:48:39.805Z,29.50
2022-12-05T12:49:40.072Z,29.50
2022-12-05T12:50:43.532Z,30.60
2022-12-05T12:51:40.652Z,31.90
2022-12-05T12:52:40.888Z,31.50
2022-12-05T12:53:41.148Z,29.10
2022-12-05T12:55:02.843Z,31.30
2022-12-05T12:55:42.766Z,31.10
2022-12-05T12:56:42.016Z,32.90
2022-12-05T12:57:42.275Z,30.30